createdAt,value
2022-10-15T00:01:11.389Z,99.99
2022-10-15T00:06:12.529Z,99.85
2022-10-15T00:11:13.857Z,99.94
2022-10-15T00:16:16.860Z,99.99
2022-10-15T00:21:16.968Z,99.99
2022-10-15T00:26:16.087Z,99.99
2022-10-15T00:31:17.210Z,99.99
2022-10-15T00:36:19.944Z,99.99
2022-10-15T00:41:20.100Z,99.99
2022-10-15T00:46:19.206Z,99.99
2022-10-15T00:51:21.318Z,99.99
2022-10-15T00:56:20.617Z,99.99
2022-10-15T01:01:22.758Z,99.99
2022-10-15T01:06:22.858Z,99.99
2022-10-15T01:11:22.208Z,99.99
2022-10-15T01:16:24.358Z,99.99
2022-10-15T01:21:23.435Z,99.99
2022-10-15T01:26:24.755Z,99.99
2022-10-15T01:31:25.840Z,99.99
2022-10-15T01:36:26.944Z,99.99
2022-10-15T01:41:28.252Z,99.99
2022-10-15T01:46:30.572Z,99.99
2022-10-15T01:51:30.666Z,99.99
2022-10-15T01:56:29.027Z,99.99
2022-10-15T02:01:30.579Z,99.99
2022-10-15T02:06:29.720Z,99.99
2022-10-15T02:11:31.801Z,99.99
2022-10-15T02:16:30.896Z,99.99
2022-10-15T02:21:32.255Z,99.99
2022-10-15T02:26:34.336Z,99.99
2022-10-15T02:31:34.465Z,99.99
2022-10-15T02:36:33.555Z,99.99
2022-10-15T02:41:34.641Z,99.99
2022-10-15T02:46:35.739Z,99.99
2022-10-15T02:51:37.096Z,99.99
2022-10-15T02:56:38.191Z,99.99
2022-10-15T03:01:39.278Z,99.99
2022-10-15T03:06:40.525Z,99.99
2022-10-15T03:11:43.616Z,99.99
2022-10-15T03:16:42.932Z,99.99
2022-10-15T03:21:44.995Z,99.99
2022-10-15T03:26:44.076Z,99.99
2022-10-15T03:31:45.177Z,99.99
2022-10-15T03:36:46.284Z,99.99
2022-10-15T03:41:47.902Z,99.99
2022-10-15T03:46:46.986Z,99.99
2022-10-15T03:51:48.076Z,99.99
2022-10-15T03:56:49.162Z,99.94
2022-10-15T04:01:50.465Z,99.94
2022-10-15T04:06:51.809Z,99.99
2022-10-15T04:11:53.102Z,99.99
2022-10-15T04:16:54.200Z,99.74
2022-10-15T04:21:56.363Z,99.99
2022-10-15T04:26:55.458Z,99.94
2022-10-15T04:31:56.729Z,99.63
2022-10-15T04:36:57.841Z,99.43
2022-10-15T04:41:59.187Z,98.37
2022-10-15T04:47:01.285Z,97.86
2022-10-15T04:52:02.405Z,97.45
2022-10-15T04:57:01.842Z,96.64
2022-10-15T05:02:02.984Z,96.80
2022-10-15T05:07:04.226Z,95.89
2022-10-15T05:12:05.598Z,94.98
2022-10-15T05:17:06.991Z,94.77
2022-10-15T05:22:09.105Z,95.89
2022-10-15T05:27:08.186Z,95.38
2022-10-15T05:32:10.319Z,96.39
2022-10-15T05:37:10.443Z,97.45
2022-10-15T05:42:13.417Z,97.66
2022-10-15T05:47:10.769Z,97.86
2022-10-15T05:52:12.027Z,97.35
2022-10-15T05:57:13.099Z,97.15
2022-10-15T06:02:14.587Z,97.15
2022-10-15T06:07:13.719Z,96.80
2022-10-15T06:12:15.813Z,96.80
2022-10-15T06:17:15.398Z,96.39
2022-10-15T06:22:14.501Z,95.79
2022-10-15T06:27:17.637Z,94.67
2022-10-15T06:32:17.747Z,94.67
2022-10-15T06:37:17.831Z,95.79
2022-10-15T06:42:16.990Z,95.03
2022-10-15T06:47:18.075Z,95.23
2022-10-15T06:52:21.178Z,95.74
2022-10-15T06:57:21.329Z,94.53
2022-10-15T07:02:20.695Z,94.53
2022-10-15T07:07:21.900Z,92.86
2022-10-15T07:12:23.272Z,90.93
2022-10-15T07:17:24.447Z,90.18
2022-10-15T07:22:26.960Z,89.98
2022-10-15T07:27:27.158Z,91.50
2022-10-15T07:32:27.272Z,96.00
2022-10-15T07:37:26.399Z,95.14
2022-10-15T07:42:27.527Z,93.27
2022-10-15T07:47:28.686Z,91.57
2022-10-15T07:52:29.837Z,90.01
2022-10-15T07:57:30.924Z,88.15
2022-10-15T08:02:32.089Z,85.31
2022-10-15T08:07:33.210Z,84.77
2022-10-15T08:12:34.325Z,87.95
2022-10-15T08:17:35.514Z,86.90
2022-10-15T08:22:36.617Z,84.12
2022-10-15T08:27:38.304Z,84.05
2022-10-15T08:32:38.393Z,85.76
2022-10-15T08:37:37.518Z,84.41
2022-10-15T08:42:42.577Z,85.17
2022-10-15T08:47:40.768Z,83.59
2022-10-15T08:52:40.937Z,81.57
2022-10-15T08:57:39.056Z,81.77
2022-10-15T09:02:40.223Z,82.62
2022-10-15T09:07:42.358Z,81.81
2022-10-15T09:12:42.450Z,81.01
2022-10-15T09:17:41.572Z,81.91
2022-10-15T09:22:42.698Z,83.32
2022-10-15T09:27:43.798Z,84.69
2022-10-15T09:32:47.515Z,82.98
2022-10-15T09:37:45.479Z,80.08
2022-10-15T09:42:44.601Z,78.67
2022-10-15T09:47:45.739Z,78.74
2022-10-15T09:52:47.055Z,78.98
2022-10-15T09:57:47.187Z,79.28
2022-10-15T10:02:48.279Z,82.07
2022-10-15T10:07:49.439Z,84.97
2022-10-15T10:12:50.693Z,83.08
2022-10-15T10:17:51.987Z,81.90
2022-10-15T10:22:53.227Z,80.58
2022-10-15T10:27:55.310Z,80.77
2022-10-15T10:32:54.449Z,82.11
2022-10-15T10:37:55.715Z,82.28
2022-10-15T10:42:59.552Z,81.56
2022-10-15T10:47:57.769Z,80.68
2022-10-15T10:52:56.978Z,78.93
2022-10-15T10:57:59.062Z,76.65
2022-10-15T11:02:59.157Z,76.86
2022-10-15T11:07:58.248Z,76.21
2022-10-15T11:12:59.540Z,77.42
2022-10-15T11:18:00.797Z,78.46
2022-10-15T11:23:02.081Z,78.50
2022-10-15T11:28:04.254Z,78.90
2022-10-15T11:33:08.527Z,80.45
2022-10-15T11:38:03.465Z,81.01
2022-10-15T11:43:04.678Z,77.94
2022-10-15T11:48:05.840Z,76.63
2022-10-15T11:53:07.079Z,78.20
2022-10-15T11:58:08.267Z,75.59
2022-10-15T12:03:10.417Z,80.99
2022-10-15T12:08:10.692Z,83.06
2022-10-15T12:13:11.809Z,81.88
2022-10-15T12:18:10.944Z,82.75
2022-10-15T12:23:12.065Z,80.79
2022-10-15T12:28:14.163Z,75.40
2022-10-15T12:33:17.174Z,75.52
2022-10-15T12:38:14.266Z,75.93
2022-10-15T12:43:15.410Z,75.49
2022-10-15T12:48:16.536Z,75.13
2022-10-15T12:53:17.656Z,75.46
2022-10-15T12:58:18.762Z,74.96
2022-10-15T13:03:19.955Z,76.10
2022-10-15T13:08:21.149Z,76.54
2022-10-15T13:13:23.262Z,76.87
2022-10-15T13:18:22.371Z,78.24
2022-10-15T13:23:31.400Z,75.43
2022-10-15T13:28:25.468Z,75.13
2022-10-15T13:33:24.589Z,75.83
2022-10-15T13:38:26.712Z,74.73
2022-10-15T13:43:25.874Z,74.69
2022-10-15T13:48:27.998Z,75.39
2022-10-15T13:53:27.099Z,73.82
2022-10-15T13:58:28.218Z,72.09
2022-10-15T14:03:29.347Z,74.12
2022-10-15T14:08:31.466Z,74.89
2022-10-15T14:13:30.759Z,75.83
2022-10-15T14:18:31.930Z,78.70
2022-10-15T14:23:35.069Z,79.68
2022-10-15T14:28:34.191Z,79.28
2022-10-15T14:33:35.353Z,81.45
2022-10-15T14:38:36.451Z,79.18
2022-10-15T14:43:37.550Z,79.98
2022-10-15T14:48:38.668Z,80.54
2022-10-15T14:53:40.771Z,81.24
2022-10-15T14:58:40.845Z,80.85
2022-10-15T15:03:39.948Z,82.55
2022-10-15T15:08:41.037Z,81.99
2022-10-15T15:13:43.138Z,81.06
2022-10-15T15:18:42.311Z,83.37
2022-10-15T15:23:44.417Z,83.17
2022-10-15T15:28:45.625Z,85.31
2022-10-15T15:33:44.726Z,84.85
2022-10-15T15:38:45.860Z,85.19
2022-10-15T15:43:46.994Z,87.96
2022-10-15T15:48:48.118Z,87.91
2022-10-15T15:53:49.230Z,88.71
2022-10-15T15:58:51.349Z,88.15
2022-10-15T16:03:50.457Z,89.40
2022-10-15T16:08:51.578Z,89.20
2022-10-15T16:13:53.716Z,89.34
2022-10-15T16:18:51.924Z,90.49
2022-10-15T16:23:53.134Z,91.34
2022-10-15T16:28:54.259Z,91.89
2022-10-15T16:33:55.377Z,92.94
2022-10-15T16:38:57.473Z,92.83
2022-10-15T16:43:56.680Z,93.69
2022-10-15T16:48:57.779Z,93.53
2022-10-15T16:53:58.892Z,93.88
2022-10-15T16:58:59.991Z,95.54
2022-10-15T17:04:01.093Z,97.40
2022-10-15T17:09:02.388Z,96.39
2022-10-15T17:14:03.521Z,95.89
2022-10-15T17:19:04.824Z,96.39
2022-10-15T17:24:07.004Z,97.34
2022-10-15T17:29:06.983Z,97.05
2022-10-15T17:34:07.388Z,97.19
2022-10-15T17:39:07.605Z,97.29
2022-10-15T17:44:07.963Z,98.14
2022-10-15T17:49:07.168Z,98.55
2022-10-15T17:54:08.276Z,98.09
2022-10-15T17:59:10.392Z,97.79
2022-10-15T18:04:09.493Z,99.25
2022-10-15T18:09:10.709Z,99.19
2022-10-15T18:14:11.925Z,99.99
2022-10-15T18:19:13.121Z,99.99
2022-10-15T18:24:14.490Z,98.95
2022-10-15T18:29:16.846Z,97.89
2022-10-15T18:34:16.295Z,95.43
2022-10-15T18:39:18.622Z,94.37
2022-10-15T18:44:18.030Z,93.82
2022-10-15T18:49:19.273Z,92.57
2022-10-15T18:54:21.046Z,91.86
2022-10-15T18:59:21.529Z,91.46
2022-10-15T19:04:21.881Z,91.25
2022-10-15T19:09:21.258Z,90.34
2022-10-15T19:14:22.403Z,90.45
2022-10-15T19:19:24.521Z,90.14
2022-10-15T19:24:23.821Z,90.65
2022-10-15T19:29:25.939Z,90.45
2022-10-15T19:34:25.035Z,89.39
2022-10-15T19:39:26.160Z,89.39
2022-10-15T19:44:29.142Z,89.19
2022-10-15T19:49:31.330Z,89.19
2022-10-15T19:54:31.670Z,89.19
2022-10-15T19:59:30.309Z,88.48
2022-10-15T20:04:31.509Z,87.78
2022-10-15T20:09:30.619Z,88.48
2022-10-15T20:14:31.702Z,89.54
2022-10-15T20:19:33.816Z,90.59
2022-10-15T20:24:33.935Z,90.99
2022-10-15T20:29:33.029Z,91.60
2022-10-15T20:34:34.170Z,92.35
2022-10-15T20:39:37.320Z,92.45
2022-10-15T20:44:36.730Z,93.20
2022-10-15T20:49:37.855Z,92.90
2022-10-15T20:54:40.006Z,93.20
2022-10-15T20:59:40.199Z,93.35
2022-10-15T21:04:39.557Z,93.15
2022-10-15T21:09:41.654Z,94.40
2022-10-15T21:14:42.785Z,95.11
2022-10-15T21:19:40.899Z,95.46
2022-10-15T21:24:42.245Z,94.81
2022-10-15T21:29:44.365Z,94.20
2022-10-15T21:34:43.484Z,94.60
2022-10-15T21:39:44.659Z,94.10
2022-10-15T21:44:45.816Z,95.06
2022-10-15T21:49:47.928Z,95.71
2022-10-15T21:54:47.044Z,95.61
2022-10-15T21:59:49.130Z,94.35
2022-10-15T22:04:49.247Z,94.35
2022-10-15T22:09:49.370Z,94.45
2022-10-15T22:14:49.698Z,94.55
2022-10-15T22:19:50.136Z,93.33
2022-10-15T22:24:49.412Z,91.67
2022-10-15T22:29:51.686Z,92.48
2022-10-15T22:34:50.796Z,91.57
2022-10-15T22:39:52.902Z,91.77
2022-10-15T22:44:52.002Z,91.16
2022-10-15T22:49:53.816Z,91.57
2022-10-15T22:54:52.899Z,92.08
2022-10-15T22:59:57.164Z,91.47
2022-10-15T23:04:54.130Z,91.37
2022-10-15T23:09:55.239Z,91.27
2022-10-15T23:14:56.347Z,91.27
2022-10-15T23:19:58.618Z,91.06
2022-10-15T23:24:58.684Z,89.61
2022-10-15T23:30:14.095Z,89.75
2022-10-15T23:34:59.729Z,89.65
2022-10-15T23:39:58.837Z,89.65
2022-10-15T23:44:59.940Z,89.20
2022-10-15T23:50:01.173Z,88.19
2022-10-15T23:55:03.237Z,87.99
